Portada
METAR-TAF:

METAR-TAF

Aeroports :

Aupaluk, Quebec, Canadà

latitud: 59-17-48N, longitud: 069-35-59W, altitud: 35 m

Observació

L'informe es va fer fa 58 minuts, a les 19:00 UTC
Vent 15 kt del Nord/Nord-Est amb ràfegues de 22 kt
Temperatura 5°C
Humitat 81%
Pressió 1017 hPa
Visibilitat: 96.5 km
Cel cobert a una alçada de 800 ft

METAR: CYLA 151900Z 02015G22KT 60SM OVC008 05/02 A3003 RMK SC8 SLP173

Hora: 15:58 (19:58 UTC)


TAF: manca

Observacions i pronòstics meteorològics de més de 4000 aeroports (METAR i TAF).

Les estacions disponibles són els punts grocs i vermells al mapa.

Posi el ratolí al punt desitjat per veure el nom de l'estació.

Feu clic per veure les observacions i els pronòstics meteorològics.

Per canviar el mapa: feu clic els botons verds amb una creu de color negre per apropar; al botó verd amb un guió per allunyar la imatge; o en les fletxes verdes per a mapes adjacents.


METAR-TAF: